createdAt,value
2018-10-04T00:00:07.323Z,0.00
2018-10-04T00:01:07.328Z,0.00
2018-10-04T00:02:07.354Z,0.00
2018-10-04T00:03:07.385Z,0.00
2018-10-04T00:04:07.398Z,0.00
2018-10-04T00:05:07.407Z,0.00
2018-10-04T00:06:07.429Z,0.00
2018-10-04T00:07:07.446Z,0.00
2018-10-04T00:08:07.457Z,0.00
2018-10-04T00:09:07.477Z,0.00
2018-10-04T00:10:07.497Z,0.00
2018-10-04T00:11:07.520Z,0.00
2018-10-04T00:12:07.585Z,0.00
2018-10-04T00:13:07.545Z,0.00
2018-10-04T00:14:07.561Z,0.00
2018-10-04T00:15:07.585Z,0.00
2018-10-04T00:16:07.608Z,0.00
2018-10-04T00:17:07.613Z,0.00
2018-10-04T00:18:07.639Z,0.00
2018-10-04T00:19:07.655Z,0.00
2018-10-04T00:20:07.671Z,0.00
2018-10-04T00:21:07.691Z,0.00
2018-10-04T00:22:07.708Z,0.00
2018-10-04T00:23:07.735Z,0.00
2018-10-04T00:24:07.745Z,0.00
2018-10-04T00:25:07.764Z,0.00
2018-10-04T00:26:07.784Z,0.00
2018-10-04T00:27:07.797Z,0.00
2018-10-04T00:28:07.820Z,0.00
2018-10-04T00:29:07.829Z,0.00
2018-10-04T00:30:07.874Z,0.00
2018-10-04T00:31:07.862Z,0.00
2018-10-04T00:32:07.886Z,0.00
2018-10-04T00:33:07.908Z,0.00
2018-10-04T00:34:07.917Z,0.00
2018-10-04T00:35:07.942Z,0.00
2018-10-04T00:36:07.959Z,0.00
2018-10-04T00:37:07.980Z,0.00
2018-10-04T00:38:07.994Z,0.00
2018-10-04T00:39:08.006Z,0.00
2018-10-04T00:40:08.028Z,0.00
2018-10-04T00:41:08.037Z,0.00
2018-10-04T00:42:08.056Z,0.00
2018-10-04T00:43:08.099Z,0.00
2018-10-04T00:44:08.093Z,0.00
2018-10-04T00:45:08.124Z,0.00
2018-10-04T00:46:08.136Z,0.00
2018-10-04T00:47:08.148Z,0.00
2018-10-04T00:48:08.172Z,0.00
2018-10-04T00:49:08.191Z,0.00
2018-10-04T00:50:08.200Z,0.00
2018-10-04T00:51:08.221Z,0.00
2018-10-04T00:52:08.244Z,0.00
2018-10-04T00:53:08.258Z,0.00
2018-10-04T00:54:08.282Z,0.00
2018-10-04T00:55:08.305Z,0.00
2018-10-04T00:56:08.304Z,0.00
2018-10-04T00:57:08.336Z,0.00
2018-10-04T00:58:08.344Z,0.00
2018-10-04T00:59:08.364Z,0.00
2018-10-04T01:00:08.378Z,0.00
2018-10-04T01:01:08.400Z,0.00
2018-10-04T01:02:08.409Z,0.00
2018-10-04T01:03:08.433Z,0.00
2018-10-04T01:04:08.452Z,0.00
2018-10-04T01:05:08.487Z,0.00
2018-10-04T01:06:08.485Z,0.00
2018-10-04T01:07:08.501Z,0.00
2018-10-04T01:08:08.524Z,0.00
2018-10-04T01:09:08.541Z,0.00
2018-10-04T01:10:08.560Z,0.00
2018-10-04T01:11:08.573Z,0.00
2018-10-04T01:12:08.599Z,0.00
2018-10-04T01:13:08.630Z,0.00
2018-10-04T01:14:08.627Z,0.00
2018-10-04T01:15:08.643Z,0.00
2018-10-04T01:16:08.658Z,0.00
2018-10-04T01:17:08.677Z,0.00
2018-10-04T01:18:08.701Z,0.00
2018-10-04T01:19:08.724Z,0.00
2018-10-04T01:20:08.738Z,0.00
2018-10-04T01:21:08.746Z,0.00
2018-10-04T01:22:08.771Z,0.00
2018-10-04T01:23:08.786Z,0.00
2018-10-04T01:24:08.805Z,0.00
2018-10-04T01:25:08.867Z,0.00
2018-10-04T01:26:08.834Z,0.00
2018-10-04T01:27:08.855Z,0.00
2018-10-04T01:28:08.875Z,0.00
2018-10-04T01:29:08.893Z,0.00
2018-10-04T01:30:08.903Z,0.00
2018-10-04T01:31:08.921Z,0.00
2018-10-04T01:32:08.941Z,0.00
2018-10-04T01:33:08.964Z,0.00
2018-10-04T01:34:08.977Z,0.00
2018-10-04T01:35:08.995Z,0.00
2018-10-04T01:36:09.007Z,0.00
2018-10-04T01:37:09.029Z,0.00
2018-10-04T01:38:09.052Z,0.00
2018-10-04T01:39:09.063Z,0.00
2018-10-04T01:40:09.079Z,0.00
2018-10-04T01:41:09.108Z,0.00
2018-10-04T01:42:09.120Z,0.00
2018-10-04T01:43:09.146Z,0.00
2018-10-04T01:44:09.155Z,0.00
2018-10-04T01:45:09.172Z,0.00
2018-10-04T01:46:09.193Z,0.00
2018-10-04T01:47:09.203Z,0.00
2018-10-04T01:48:09.229Z,0.00
2018-10-04T01:49:09.289Z,0.00
2018-10-04T01:50:09.261Z,0.00
2018-10-04T01:51:09.274Z,0.00
2018-10-04T01:52:09.287Z,0.00
2018-10-04T01:53:09.310Z,0.00
2018-10-04T01:54:09.375Z,0.00
2018-10-04T01:55:09.347Z,0.00
2018-10-04T01:56:09.365Z,0.00
2018-10-04T01:57:09.379Z,0.00
2018-10-04T01:58:09.395Z,0.00
2018-10-04T01:59:09.414Z,0.00
2018-10-04T02:00:09.430Z,0.00
2018-10-04T02:01:09.486Z,0.00
2018-10-04T02:02:09.463Z,0.00
2018-10-04T02:03:09.479Z,0.00
2018-10-04T02:04:09.513Z,0.00
2018-10-04T02:05:09.522Z,0.00
2018-10-04T02:06:09.542Z,0.00
2018-10-04T02:07:09.553Z,0.00
2018-10-04T02:08:09.574Z,0.00
2018-10-04T02:09:09.589Z,0.00
2018-10-04T02:10:09.606Z,0.00
2018-10-04T02:11:09.625Z,0.00
2018-10-04T02:12:09.682Z,0.00
2018-10-04T02:13:09.668Z,0.00
2018-10-04T02:14:09.675Z,0.00
2018-10-04T02:15:09.697Z,0.00
2018-10-04T02:16:09.712Z,0.00
2018-10-04T02:17:09.726Z,0.00
2018-10-04T02:18:09.743Z,0.00
2018-10-04T02:19:09.773Z,0.00
2018-10-04T02:20:09.780Z,0.00
2018-10-04T02:21:09.799Z,0.00
2018-10-04T02:22:09.822Z,0.00
2018-10-04T02:23:09.832Z,0.00
2018-10-04T02:24:09.848Z,0.00
2018-10-04T02:25:09.870Z,0.00
2018-10-04T02:26:09.888Z,0.00
2018-10-04T02:27:09.906Z,0.00
2018-10-04T02:28:09.919Z,0.00
2018-10-04T02:29:09.942Z,0.00
2018-10-04T02:30:09.953Z,0.00
2018-10-04T02:31:09.967Z,0.00
2018-10-04T02:32:09.991Z,0.00
2018-10-04T02:33:10.008Z,0.00
2018-10-04T02:34:10.031Z,0.00
2018-10-04T02:35:10.042Z,0.00
2018-10-04T02:36:10.057Z,0.00
2018-10-04T02:37:10.163Z,0.00
2018-10-04T02:38:10.099Z,0.00
2018-10-04T02:39:10.118Z,0.00
2018-10-04T02:40:10.134Z,0.00
2018-10-04T02:41:10.151Z,0.00
2018-10-04T02:42:10.168Z,0.00
2018-10-04T02:43:10.207Z,0.00
2018-10-04T02:44:10.203Z,0.00
2018-10-04T02:45:10.223Z,0.00
2018-10-04T02:46:10.235Z,0.00
2018-10-04T02:47:10.253Z,0.00
2018-10-04T02:48:10.273Z,0.00
2018-10-04T02:49:10.339Z,0.00
2018-10-04T02:50:10.312Z,0.00
2018-10-04T02:51:10.321Z,0.00
2018-10-04T02:52:10.340Z,0.00
2018-10-04T02:53:10.361Z,0.00
2018-10-04T02:54:10.377Z,0.00
2018-10-04T02:55:10.392Z,0.00
2018-10-04T02:56:10.414Z,0.00
2018-10-04T02:57:10.428Z,0.00
2018-10-04T02:58:10.441Z,0.00
2018-10-04T02:59:10.457Z,0.00
2018-10-04T03:00:10.477Z,0.00
2018-10-04T03:01:10.491Z,0.00
2018-10-04T03:02:10.521Z,0.00
2018-10-04T03:03:10.532Z,0.00
2018-10-04T03:04:10.548Z,0.00
2018-10-04T03:05:10.568Z,0.00
2018-10-04T03:06:10.581Z,0.00
2018-10-04T03:07:10.604Z,0.00
2018-10-04T03:08:10.631Z,0.00
2018-10-04T03:09:10.630Z,0.00
2018-10-04T03:10:10.664Z,0.00
2018-10-04T03:11:10.716Z,0.00
2018-10-04T03:12:10.689Z,0.00
2018-10-04T03:13:10.701Z,0.00
2018-10-04T03:14:10.723Z,0.00
2018-10-04T03:15:10.734Z,0.00
2018-10-04T03:16:10.750Z,0.00
2018-10-04T03:17:10.766Z,0.00
2018-10-04T03:18:10.791Z,0.00
2018-10-04T03:19:10.810Z,0.00
2018-10-04T03:20:10.931Z,0.00
2018-10-04T03:21:10.834Z,0.00
2018-10-04T03:22:10.854Z,0.00
2018-10-04T03:23:10.881Z,0.00
2018-10-04T03:24:10.890Z,0.00
2018-10-04T03:25:10.906Z,0.00
2018-10-04T03:26:10.972Z,0.00
2018-10-04T03:27:10.944Z,0.00
2018-10-04T03:28:10.956Z,0.00
2018-10-04T03:29:10.970Z,0.00
2018-10-04T03:30:11.151Z,0.00
2018-10-04T03:31:11.008Z,0.00
2018-10-04T03:32:11.077Z,0.00
2018-10-04T03:33:11.046Z,0.00
2018-10-04T03:34:11.057Z,0.00
2018-10-04T03:35:11.082Z,0.00
2018-10-04T03:36:11.090Z,0.00
2018-10-04T03:37:11.109Z,0.00
2018-10-04T03:38:11.146Z,0.00
2018-10-04T03:39:11.145Z,0.00
2018-10-04T03:40:11.173Z,0.00
2018-10-04T03:41:11.182Z,0.00
2018-10-04T03:42:11.201Z,0.00
2018-10-04T03:43:11.228Z,0.00
2018-10-04T03:44:11.292Z,0.00
2018-10-04T03:45:11.248Z,0.00
2018-10-04T03:46:11.269Z,0.00
2018-10-04T03:47:11.285Z,0.00
2018-10-04T03:48:11.304Z,0.00
2018-10-04T03:49:11.329Z,0.00
2018-10-04T03:50:11.349Z,0.00
2018-10-04T03:51:11.357Z,0.00
2018-10-04T03:52:11.373Z,0.00
2018-10-04T03:53:11.383Z,0.00
2018-10-04T03:54:11.399Z,0.00
2018-10-04T03:55:11.420Z,0.00
2018-10-04T03:56:11.435Z,0.00
2018-10-04T03:57:11.458Z,0.00
2018-10-04T03:58:11.473Z,0.00
2018-10-04T03:59:11.487Z,0.00
2018-10-04T04:00:11.510Z,0.00
2018-10-04T04:01:11.527Z,0.00
2018-10-04T04:02:11.544Z,0.00
2018-10-04T04:03:11.599Z,0.00
2018-10-04T04:04:11.573Z,0.00
2018-10-04T04:05:11.601Z,0.00
2018-10-04T04:06:11.610Z,0.00
2018-10-04T04:07:11.623Z,0.00
2018-10-04T04:08:11.650Z,0.00
2018-10-04T04:09:11.662Z,0.00
2018-10-04T04:10:11.685Z,0.00
2018-10-04T04:11:11.691Z,0.00
2018-10-04T04:12:11.712Z,0.00
2018-10-04T04:13:11.736Z,0.00
2018-10-04T04:14:11.745Z,0.00
2018-10-04T04:15:11.764Z,0.00
2018-10-04T04:16:11.782Z,0.00
2018-10-04T04:17:11.800Z,0.00
2018-10-04T04:18:11.822Z,0.00
2018-10-04T04:19:11.831Z,0.00
2018-10-04T04:20:11.851Z,0.00
2018-10-04T04:21:11.889Z,0.00
2018-10-04T04:22:11.905Z,0.00
2018-10-04T04:23:11.898Z,0.00
2018-10-04T04:24:11.919Z,0.00
2018-10-04T04:25:11.940Z,0.00
2018-10-04T04:26:11.948Z,0.00
2018-10-04T04:27:11.971Z,0.00
2018-10-04T04:28:11.984Z,0.00
2018-10-04T04:29:12.002Z,0.00
2018-10-04T04:30:12.027Z,0.00
2018-10-04T04:31:12.039Z,0.00
2018-10-04T04:32:12.056Z,0.00
2018-10-04T04:33:12.073Z,0.00
2018-10-04T04:34:12.094Z,0.00
2018-10-04T04:35:12.111Z,0.00
2018-10-04T04:36:12.127Z,0.00
2018-10-04T04:37:12.143Z,0.00
2018-10-04T04:38:12.161Z,0.00
2018-10-04T04:39:12.173Z,0.00
2018-10-04T04:40:12.199Z,0.00
2018-10-04T04:41:12.212Z,0.00
2018-10-04T04:42:12.227Z,0.00
2018-10-04T04:43:12.244Z,0.00
2018-10-04T04:44:12.261Z,0.00
2018-10-04T04:45:12.286Z,0.00
2018-10-04T04:46:12.299Z,0.00
2018-10-04T04:47:12.391Z,0.00
2018-10-04T04:48:12.324Z,0.00
2018-10-04T04:49:12.343Z,0.00
2018-10-04T04:50:12.361Z,0.00
2018-10-04T04:51:12.396Z,0.00
2018-10-04T04:52:12.405Z,0.00
2018-10-04T04:53:12.420Z,0.00
2018-10-04T04:54:12.426Z,0.00
2018-10-04T04:55:12.446Z,0.00
2018-10-04T04:56:12.471Z,0.00
2018-10-04T04:57:12.520Z,0.00
2018-10-04T04:58:12.507Z,0.00
2018-10-04T04:59:12.514Z,0.00
2018-10-04T05:00:12.537Z,0.00
2018-10-04T05:01:12.552Z,0.00
2018-10-04T05:02:12.562Z,0.00
2018-10-04T05:03:12.599Z,0.00
2018-10-04T05:04:12.601Z,0.00
2018-10-04T05:05:12.623Z,0.00
2018-10-04T05:06:12.693Z,0.00
2018-10-04T05:07:12.656Z,0.00
2018-10-04T05:08:12.678Z,0.00
2018-10-04T05:09:12.688Z,0.00
2018-10-04T05:10:12.707Z,0.00
2018-10-04T05:11:12.729Z,0.00
2018-10-04T05:12:12.744Z,0.00
2018-10-04T05:13:12.764Z,0.00
2018-10-04T05:14:12.776Z,0.00
2018-10-04T05:15:12.794Z,0.00
2018-10-04T05:16:12.820Z,0.00
2018-10-04T05:17:12.824Z,0.00
2018-10-04T05:18:12.833Z,0.00
2018-10-04T05:19:12.855Z,0.00
2018-10-04T05:20:12.876Z,0.00
2018-10-04T05:21:12.889Z,0.00
2018-10-04T05:22:12.921Z,0.00
2018-10-04T05:23:12.926Z,0.00
2018-10-04T05:24:12.949Z,0.00
2018-10-04T05:25:12.969Z,0.00
2018-10-04T05:26:12.973Z,0.00
2018-10-04T05:27:12.994Z,0.00
2018-10-04T05:28:13.020Z,0.00
2018-10-04T05:29:13.026Z,0.00
2018-10-04T05:30:13.044Z,0.00
2018-10-04T05:31:13.062Z,0.00
2018-10-04T05:32:13.079Z,0.00
2018-10-04T05:33:13.102Z,0.00
2018-10-04T05:34:13.148Z,0.00
2018-10-04T05:35:13.124Z,0.00
2018-10-04T05:36:13.153Z,0.00
2018-10-04T05:37:13.333Z,0.00
2018-10-04T05:38:13.180Z,0.00
2018-10-04T05:39:13.198Z,0.00
2018-10-04T05:40:13.258Z,0.00
2018-10-04T05:41:13.241Z,0.00
2018-10-04T05:42:13.254Z,0.00
2018-10-04T05:43:13.272Z,0.00
2018-10-04T05:44:13.286Z,0.00
2018-10-04T05:45:13.365Z,0.00
2018-10-04T05:46:13.382Z,0.00
2018-10-04T05:47:13.331Z,0.00
2018-10-04T05:48:13.352Z,0.00
2018-10-04T05:49:13.370Z,0.00
2018-10-04T05:50:13.384Z,0.00
2018-10-04T05:51:13.405Z,0.00
2018-10-04T05:52:13.501Z,0.00
2018-10-04T05:53:13.470Z,0.00
2018-10-04T05:54:13.451Z,0.00
2018-10-04T05:55:13.478Z,0.00
2018-10-04T05:56:13.497Z,0.00
2018-10-04T05:57:13.503Z,0.00
2018-10-04T05:58:13.537Z,0.00
2018-10-04T05:59:13.661Z,0.00
2018-10-04T06:00:13.562Z,0.00
2018-10-04T06:01:13.579Z,0.00
2018-10-04T06:02:13.591Z,0.00
2018-10-04T06:03:13.607Z,0.00
2018-10-04T06:04:13.623Z,0.00
2018-10-04T06:05:13.703Z,0.00
2018-10-04T06:06:13.661Z,0.00
2018-10-04T06:07:13.685Z,0.00
2018-10-04T06:08:13.692Z,0.00
2018-10-04T06:09:13.714Z,0.00
2018-10-04T06:10:13.731Z,0.00
2018-10-04T06:11:13.744Z,0.00
2018-10-04T06:12:13.765Z,0.00
2018-10-04T06:13:13.778Z,0.00
2018-10-04T06:14:13.794Z,0.00
2018-10-04T06:15:13.894Z,0.00
2018-10-04T06:16:13.828Z,0.00
2018-10-04T06:17:13.844Z,0.00
2018-10-04T06:18:13.866Z,0.00
2018-10-04T06:19:13.880Z,0.00
2018-10-04T06:20:13.892Z,0.00
2018-10-04T06:21:13.915Z,0.00
2018-10-04T06:22:13.934Z,0.00
2018-10-04T06:23:13.944Z,0.00
2018-10-04T06:24:13.967Z,0.00
2018-10-04T06:25:13.977Z,0.00
2018-10-04T06:26:13.999Z,0.00
2018-10-04T06:27:14.017Z,0.00
2018-10-04T06:28:14.037Z,0.00
2018-10-04T06:29:14.300Z,0.00
2018-10-04T06:30:14.067Z,0.00
2018-10-04T06:31:14.085Z,0.00
2018-10-04T06:32:14.103Z,0.00
2018-10-04T06:33:14.119Z,0.00
2018-10-04T06:34:14.140Z,0.00
2018-10-04T06:35:14.186Z,5.63
2018-10-04T06:36:14.173Z,5.63
2018-10-04T06:37:14.192Z,5.63
2018-10-04T06:38:14.205Z,5.63
2018-10-04T06:39:14.223Z,5.63
2018-10-04T06:40:14.289Z,5.63
2018-10-04T06:41:14.253Z,5.63
2018-10-04T06:42:14.271Z,5.63
2018-10-04T06:43:14.291Z,11.25
2018-10-04T06:44:14.315Z,11.25
2018-10-04T06:45:14.329Z,11.25
2018-10-04T06:46:14.347Z,11.25
2018-10-04T06:47:14.379Z,11.25
2018-10-04T06:48:14.365Z,11.25
2018-10-04T06:49:14.395Z,16.88
2018-10-04T06:50:14.460Z,16.88
2018-10-04T06:51:14.421Z,16.88
2018-10-04T06:52:14.450Z,16.88
2018-10-04T06:53:14.463Z,16.88
2018-10-04T06:54:14.469Z,16.88
2018-10-04T06:55:14.492Z,22.50
2018-10-04T06:56:14.509Z,22.50
2018-10-04T06:57:14.521Z,22.50
2018-10-04T06:58:14.583Z,22.50
2018-10-04T06:59:14.563Z,22.50
2018-10-04T07:00:14.670Z,22.50
2018-10-04T07:01:14.600Z,28.13
2018-10-04T07:02:14.616Z,28.13
2018-10-04T07:03:14.628Z,28.13
2018-10-04T07:04:14.645Z,28.13
2018-10-04T07:05:14.664Z,28.13
2018-10-04T07:06:14.678Z,33.75
2018-10-04T07:07:14.694Z,33.75
2018-10-04T07:08:14.713Z,33.75
2018-10-04T07:09:14.732Z,33.75
2018-10-04T07:10:14.812Z,33.75
2018-10-04T07:11:14.768Z,39.38
2018-10-04T07:12:14.819Z,39.38
2018-10-04T07:13:14.794Z,39.38
2018-10-04T07:14:14.811Z,39.38
2018-10-04T07:15:14.826Z,45.00
2018-10-04T07:16:14.848Z,45.00
2018-10-04T07:17:14.856Z,45.00
2018-10-04T07:18:14.977Z,50.63
2018-10-04T07:19:14.901Z,50.63
2018-10-04T07:20:14.936Z,56.25
2018-10-04T07:21:14.931Z,56.25
2018-10-04T07:22:15.016Z,61.88
2018-10-04T07:23:14.965Z,61.88
2018-10-04T07:24:15.061Z,67.50
2018-10-04T07:25:14.994Z,61.88
2018-10-04T07:26:15.017Z,73.13
2018-10-04T07:27:15.033Z,90.00
2018-10-04T07:28:15.044Z,129.38
2018-10-04T07:29:15.073Z,163.13
2018-10-04T07:30:15.137Z,163.13
2018-10-04T07:31:15.105Z,168.75
2018-10-04T07:32:15.121Z,180.00
2018-10-04T07:33:15.136Z,185.63
2018-10-04T07:34:15.153Z,191.25
2018-10-04T07:35:15.173Z,196.88
2018-10-04T07:36:15.193Z,202.50
2018-10-04T07:37:15.288Z,208.13
2018-10-04T07:38:15.225Z,213.75
2018-10-04T07:44:09.605Z,247.50
2018-10-04T07:45:09.615Z,253.13
2018-10-04T07:46:09.641Z,253.13
2018-10-04T07:47:09.657Z,258.75
2018-10-04T07:48:09.677Z,258.75
2018-10-04T07:49:09.798Z,264.38
2018-10-04T07:50:09.753Z,264.38
2018-10-04T07:51:09.726Z,270.00
2018-10-04T07:52:09.743Z,270.00
2018-10-04T07:53:09.777Z,275.63
2018-10-04T07:54:09.779Z,281.25
2018-10-04T07:55:09.842Z,286.88
2018-10-04T07:56:09.815Z,286.88
2018-10-04T07:57:09.826Z,292.50
2018-10-04T07:58:09.851Z,298.13
2018-10-04T07:59:09.869Z,298.13
2018-10-04T08:00:09.962Z,298.13
2018-10-04T08:01:09.986Z,303.75
2018-10-04T08:02:09.923Z,309.38
2018-10-04T08:03:09.974Z,309.38
2018-10-04T08:04:09.963Z,315.00
2018-10-04T08:05:09.988Z,320.63
2018-10-04T08:06:10.127Z,320.63
2018-10-04T08:07:10.062Z,326.25
2018-10-04T08:08:10.059Z,331.88
2018-10-04T08:09:10.071Z,331.88
2018-10-04T08:10:10.097Z,337.50
2018-10-04T08:11:10.108Z,348.75
2018-10-04T08:12:10.137Z,343.13
2018-10-04T08:13:10.158Z,343.13
2018-10-04T08:14:10.174Z,348.75
2018-10-04T08:15:10.197Z,348.75
2018-10-04T08:16:10.208Z,354.38
2018-10-04T08:17:10.243Z,354.38
2018-10-04T08:18:10.254Z,360.00
2018-10-04T08:19:10.267Z,360.00
2018-10-04T08:20:10.291Z,365.63
2018-10-04T08:21:10.383Z,371.25
2018-10-04T08:22:10.332Z,371.25
2018-10-04T08:23:10.348Z,371.25
2018-10-04T08:24:10.374Z,376.88
2018-10-04T08:25:10.398Z,382.50
2018-10-04T08:26:10.492Z,382.50
2018-10-04T08:27:10.435Z,382.50
2018-10-04T08:28:10.456Z,388.13
2018-10-04T08:29:10.583Z,388.13
2018-10-04T08:30:10.502Z,393.75
2018-10-04T08:31:10.518Z,393.75
2018-10-04T08:32:10.543Z,399.38
2018-10-04T08:33:10.563Z,399.38
2018-10-04T08:34:10.575Z,405.00
2018-10-04T08:35:10.646Z,405.00
2018-10-04T08:36:10.619Z,410.63
2018-10-04T08:37:10.644Z,416.25
2018-10-04T08:38:10.686Z,416.25
2018-10-04T08:39:10.677Z,416.25
2018-10-04T08:40:10.696Z,421.88
2018-10-04T08:41:10.724Z,421.88
2018-10-04T08:42:10.779Z,427.50
2018-10-04T08:43:10.763Z,427.50
2018-10-04T08:44:10.784Z,427.50
2018-10-04T08:45:10.806Z,427.50
2018-10-04T08:46:10.826Z,433.13
2018-10-04T08:47:10.849Z,433.13
2018-10-04T08:48:10.914Z,438.75
2018-10-04T08:49:10.937Z,444.38
2018-10-04T08:50:10.910Z,444.38
2018-10-04T08:51:10.934Z,450.00
2018-10-04T08:52:10.953Z,450.00
2018-10-04T08:53:10.969Z,450.00
2018-10-04T08:54:11.076Z,450.00
2018-10-04T08:55:11.018Z,455.63
2018-10-04T08:56:11.034Z,455.63
2018-10-04T08:57:11.056Z,455.63
2018-10-04T08:58:11.077Z,455.63
2018-10-04T08:59:11.096Z,461.25
2018-10-04T09:00:11.127Z,444.38
2018-10-04T09:01:11.163Z,461.25
2018-10-04T09:02:11.166Z,466.88
2018-10-04T09:03:11.189Z,466.88
2018-10-04T09:04:11.212Z,472.50
2018-10-04T09:05:11.228Z,478.13
2018-10-04T09:06:11.248Z,472.50
2018-10-04T09:07:11.323Z,478.13
2018-10-04T09:08:11.300Z,483.75
2018-10-04T09:09:11.324Z,478.13
2018-10-04T09:10:11.331Z,483.75
2018-10-04T09:11:11.360Z,489.38
2018-10-04T09:12:11.377Z,489.38
2018-10-04T09:13:11.455Z,489.38
2018-10-04T09:14:11.422Z,489.38
2018-10-04T09:15:11.449Z,495.00
2018-10-04T09:16:11.470Z,495.00
2018-10-04T09:17:11.482Z,500.63
2018-10-04T09:18:11.507Z,500.63
2018-10-04T09:19:11.605Z,500.63
2018-10-04T09:20:11.553Z,500.63
2018-10-04T09:21:11.576Z,506.25
2018-10-04T09:22:11.588Z,506.25
2018-10-04T09:23:11.612Z,506.25
2018-10-04T09:24:11.628Z,506.25
2018-10-04T09:25:11.726Z,506.25
2018-10-04T09:26:11.693Z,506.25
2018-10-04T09:27:11.694Z,511.88
2018-10-04T09:28:11.727Z,506.25
2018-10-04T09:29:11.748Z,511.88
2018-10-04T09:30:11.772Z,517.50
2018-10-04T09:31:11.830Z,511.88
2018-10-04T09:32:11.876Z,517.50
2018-10-04T09:33:11.828Z,517.50
2018-10-04T09:34:11.856Z,523.13
2018-10-04T09:35:11.873Z,528.75
2018-10-04T09:36:11.895Z,528.75
2018-10-04T09:37:11.982Z,528.75
2018-10-04T09:38:11.941Z,534.38
2018-10-04T09:39:11.954Z,534.38
2018-10-04T09:40:11.974Z,534.38
2018-10-04T09:41:12.084Z,540.00
2018-10-04T09:42:12.023Z,540.00
2018-10-04T09:43:12.052Z,540.00
2018-10-04T09:44:12.060Z,540.00
2018-10-04T09:45:12.085Z,545.63
2018-10-04T09:46:12.154Z,545.63
2018-10-04T09:47:12.137Z,551.25
2018-10-04T09:48:12.147Z,551.25
2018-10-04T09:49:12.231Z,534.38
2018-10-04T09:50:12.194Z,551.25
2018-10-04T09:51:12.223Z,556.88
2018-10-04T09:52:12.249Z,556.88
2018-10-04T09:53:12.293Z,556.88
2018-10-04T09:54:12.395Z,556.88
2018-10-04T09:55:12.329Z,556.88
2018-10-04T09:56:12.321Z,556.88
2018-10-04T09:57:12.348Z,562.50
2018-10-04T09:58:12.362Z,568.13
2018-10-04T09:59:12.396Z,562.50
2018-10-04T10:00:12.413Z,562.50
2018-10-04T10:01:12.511Z,568.13
2018-10-04T10:02:12.447Z,568.13
2018-10-04T10:03:12.473Z,568.13
2018-10-04T10:04:12.500Z,573.75
2018-10-04T10:05:12.517Z,579.38
2018-10-04T10:06:12.540Z,573.75
2018-10-04T10:07:12.558Z,573.75
2018-10-04T10:08:12.589Z,573.75
2018-10-04T10:09:12.603Z,573.75
2018-10-04T10:10:12.629Z,573.75
2018-10-04T10:11:12.652Z,573.75
2018-10-04T10:12:12.670Z,579.38
2018-10-04T10:13:12.705Z,573.75
2018-10-04T10:14:12.718Z,573.75
2018-10-04T10:15:12.734Z,573.75
2018-10-04T10:16:12.751Z,573.75
2018-10-04T10:17:12.781Z,573.75
2018-10-04T10:18:12.800Z,568.13
2018-10-04T10:19:12.826Z,568.13
2018-10-04T10:20:12.849Z,573.75
2018-10-04T10:21:12.869Z,573.75
2018-10-04T10:22:12.889Z,585.00
2018-10-04T10:23:12.910Z,579.38
2018-10-04T10:24:12.933Z,568.13
2018-10-04T10:25:12.961Z,579.38
2018-10-04T10:26:12.984Z,579.38
2018-10-04T10:27:13.036Z,579.38
2018-10-04T10:28:13.028Z,579.38
2018-10-04T10:29:13.053Z,585.00
2018-10-04T10:30:13.076Z,585.00
2018-10-04T10:31:13.093Z,585.00
2018-10-04T10:32:13.150Z,579.38
2018-10-04T10:33:13.128Z,585.00
2018-10-04T10:34:13.153Z,585.00
2018-10-04T10:35:13.171Z,585.00
2018-10-04T10:36:13.204Z,585.00
2018-10-04T10:37:13.219Z,590.63
2018-10-04T10:38:13.244Z,590.63
2018-10-04T10:39:13.271Z,590.63
2018-10-04T10:40:13.405Z,596.25
2018-10-04T10:41:13.313Z,590.63
2018-10-04T10:42:13.330Z,590.63
2018-10-04T10:43:13.349Z,590.63
2018-10-04T10:44:13.391Z,601.88
2018-10-04T10:45:13.401Z,596.25
2018-10-04T10:46:13.439Z,596.25
2018-10-04T10:47:13.442Z,601.88
2018-10-04T10:48:13.465Z,601.88
2018-10-04T10:49:13.482Z,596.25
2018-10-04T10:50:13.512Z,601.88
2018-10-04T10:51:13.538Z,596.25
2018-10-04T10:52:13.559Z,607.50
2018-10-04T10:53:13.640Z,607.50
2018-10-04T10:54:13.605Z,601.88
2018-10-04T10:55:13.648Z,601.88
2018-10-04T10:56:13.641Z,601.88
2018-10-04T10:57:13.708Z,601.88
2018-10-04T10:58:13.679Z,601.88
2018-10-04T10:59:13.702Z,590.63
2018-10-04T11:00:13.723Z,607.50
2018-10-04T11:01:13.899Z,607.50
2018-10-04T11:02:13.773Z,607.50
2018-10-04T11:03:13.792Z,607.50
2018-10-04T11:04:13.823Z,607.50
2018-10-04T11:05:13.839Z,607.50
2018-10-04T11:06:13.856Z,607.50
2018-10-04T11:07:13.916Z,607.50
2018-10-04T11:08:13.975Z,607.50
2018-10-04T11:09:13.928Z,607.50
2018-10-04T11:10:13.948Z,607.50
2018-10-04T11:11:14.016Z,618.75
2018-10-04T11:12:13.990Z,607.50
2018-10-04T11:13:14.053Z,607.50
2018-10-04T11:14:14.034Z,607.50
2018-10-04T11:15:14.057Z,551.25
2018-10-04T11:16:14.090Z,607.50
2018-10-04T11:17:14.220Z,613.13
2018-10-04T11:18:14.133Z,613.13
2018-10-04T11:19:14.168Z,618.75
2018-10-04T11:20:14.186Z,613.13
2018-10-04T11:21:14.194Z,613.13
2018-10-04T11:22:14.223Z,613.13
2018-10-04T11:23:14.258Z,618.75
2018-10-04T11:24:14.308Z,613.13
2018-10-04T11:25:14.343Z,613.13
2018-10-04T11:26:14.308Z,613.13
2018-10-04T11:27:14.331Z,613.13
2018-10-04T11:28:14.351Z,613.13
2018-10-04T11:29:14.425Z,613.13
2018-10-04T11:30:14.399Z,613.13
2018-10-04T11:31:14.499Z,613.13
2018-10-04T11:32:14.453Z,618.75
2018-10-04T11:33:14.592Z,613.13
2018-10-04T11:34:14.500Z,613.13
2018-10-04T11:35:14.521Z,613.13
2018-10-04T11:36:14.534Z,613.13
2018-10-04T11:37:14.607Z,613.13
2018-10-04T11:38:14.585Z,613.13
2018-10-04T11:39:14.663Z,607.50
2018-10-04T11:40:14.632Z,607.50
2018-10-04T11:41:14.655Z,607.50
2018-10-04T11:42:14.676Z,607.50
2018-10-04T11:43:14.750Z,607.50
2018-10-04T11:44:14.720Z,607.50
2018-10-04T11:45:14.745Z,607.50
2018-10-04T11:46:14.772Z,607.50
2018-10-04T11:47:14.801Z,607.50
2018-10-04T11:48:14.813Z,607.50
2018-10-04T11:49:14.833Z,601.88
2018-10-04T11:50:14.868Z,601.88
2018-10-04T11:51:14.879Z,601.88
2018-10-04T11:52:14.903Z,601.88
2018-10-04T11:53:14.924Z,601.88
2018-10-04T11:54:14.939Z,601.88
2018-10-04T11:55:14.966Z,596.25
2018-10-04T11:56:15.001Z,596.25
2018-10-04T11:57:15.016Z,596.25
2018-10-04T11:58:15.033Z,596.25
2018-10-04T11:59:15.056Z,596.25
2018-10-04T12:00:15.084Z,596.25
2018-10-04T12:01:15.263Z,596.25
2018-10-04T12:02:15.129Z,596.25
2018-10-04T12:03:15.147Z,596.25
2018-10-04T12:04:15.171Z,590.63
2018-10-04T12:05:15.192Z,590.63
2018-10-04T12:06:15.216Z,596.25
2018-10-04T12:07:15.299Z,590.63
2018-10-04T12:08:15.343Z,596.25
2018-10-04T12:09:15.282Z,590.63
2018-10-04T12:10:15.305Z,590.63
2018-10-04T12:11:15.340Z,590.63
2018-10-04T12:12:15.359Z,590.63
2018-10-04T12:13:15.383Z,585.00
2018-10-04T12:14:15.423Z,590.63
2018-10-04T12:15:15.414Z,585.00
2018-10-04T12:16:15.440Z,585.00
2018-10-04T12:17:15.510Z,585.00
2018-10-04T12:18:15.485Z,585.00
2018-10-04T12:19:15.510Z,585.00
2018-10-04T12:20:15.607Z,585.00
2018-10-04T12:21:15.569Z,585.00
2018-10-04T12:22:15.578Z,585.00
2018-10-04T12:23:15.605Z,579.38
2018-10-04T12:24:15.620Z,585.00
2018-10-04T12:25:15.732Z,579.38
2018-10-04T12:26:15.743Z,579.38
2018-10-04T12:27:15.682Z,585.00
2018-10-04T12:28:15.716Z,579.38
2018-10-04T12:29:15.737Z,579.38
2018-10-04T12:30:15.750Z,579.38
2018-10-04T12:31:15.786Z,579.38
2018-10-04T12:32:15.846Z,579.38
2018-10-04T12:33:15.815Z,579.38
2018-10-04T12:34:15.848Z,579.38
2018-10-04T12:35:15.864Z,579.38
2018-10-04T12:36:15.987Z,585.00
2018-10-04T12:37:15.916Z,579.38
2018-10-04T12:38:15.960Z,585.00
2018-10-04T12:39:15.958Z,579.38
2018-10-04T12:40:15.983Z,585.00
2018-10-04T12:41:15.996Z,585.00
2018-10-04T12:42:16.016Z,579.38
2018-10-04T12:43:16.049Z,579.38
2018-10-04T12:44:16.096Z,579.38
2018-10-04T12:45:16.087Z,579.38
2018-10-04T12:46:16.115Z,579.38
2018-10-04T12:47:16.143Z,585.00
2018-10-04T12:48:16.151Z,585.00
2018-10-04T12:49:16.174Z,579.38
2018-10-04T12:50:16.197Z,573.75
2018-10-04T12:51:16.218Z,579.38
2018-10-04T12:52:16.242Z,579.38
2018-10-04T12:53:16.262Z,573.75
2018-10-04T12:54:16.384Z,573.75
2018-10-04T12:55:16.311Z,573.75
2018-10-04T12:56:16.340Z,573.75
2018-10-04T12:57:16.359Z,568.13
2018-10-04T12:58:16.374Z,573.75
2018-10-04T12:59:16.404Z,573.75
2018-10-04T13:00:16.421Z,573.75